Time;durP1;ratioP1;P1;durP2;ratioP2;P2;SDS_P1;SDS_P2;PMS_P1;PMS_P2;Temp;Humidity;BMP_temperature;BMP_pressure;BME280_temperature;BME280_humidity;BME280_pressure;Samples;Min_cycle;Max_cycle;Signal;HPM_P1;HPM_P2
2021/07/01 15:31:47;;;;;;;11.70;4.27;;;26.50;75.90;;;;;;4898762;29;20607;-86
2021/07/01 15:34:13;;;;;;;8.50;4.63;;;26.10;75.80;;;;;;4889509;29;20199;-85
2021/07/01 15:36:39;;;;;;;8.97;4.23;;;25.80;77.60;;;;;;4881958;29;20204;-87
2021/07/01 15:39:04;;;;;;;10.90;4.67;;;25.80;77.00;;;;;;4899338;29;20192;-85
2021/07/01 15:41:30;;;;;;;8.80;4.47;;;26.60;76.70;;;;;;4899185;29;20273;-87
2021/07/01 15:43:56;;;;;;;6.33;3.90;;;27.50;74.90;;;;;;4899287;29;20289;-86
2021/07/01 15:46:21;;;;;;;11.37;4.77;;;28.50;73.30;;;;;;4899011;29;20197;-85
2021/07/01 15:48:47;;;;;;;7.07;4.40;;;29.30;71.00;;;;;;4898748;29;20188;-85
2021/07/01 15:51:14;;;;;;;9.33;4.93;;;29.50;69.80;;;;;;4879909;29;20206;-85
2021/07/01 15:53:40;;;;;;;8.80;4.70;;;29.50;69.10;;;;;;4880361;29;20186;-87
2021/07/01 15:56:05;;;;;;;7.57;4.47;;;29.20;70.40;;;;;;4885056;29;20185;-84
2021/07/01 15:58:31;;;;;;;8.13;4.30;;;29.50;68.60;;;;;;4879691;29;20194;-85
2021/07/01 16:00:58;;;;;;;8.33;4.30;;;30.00;68.00;;;;;;4878257;29;20288;-85
2021/07/01 16:03:24;;;;;;;6.07;4.00;;;30.10;67.30;;;;;;4879142;29;20685;-85
2021/07/01 16:05:53;;;;;;;7.77;4.93;;;30.00;68.20;;;;;;4880269;29;20189;-85
2021/07/01 16:08:21;;;;;;;8.93;5.53;;;29.40;67.00;;;;;;4887728;29;20245;-86
2021/07/01 16:10:47;;;;;;;9.73;5.03;;;28.50;69.00;;;;;;4898245;29;20227;-86
2021/07/01 16:13:14;;;;;;;9.83;5.10;;;27.90;69.20;;;;;;4879848;29;20192;-86
2021/07/01 16:15:40;;;;;;;8.33;4.63;;;27.20;71.00;;;;;;4897733;29;20278;-85
2021/07/01 16:18:07;;;;;;;9.13;4.87;;;27.00;72.20;;;;;;4883129;29;20590;-86
2021/07/01 16:20:33;;;;;;;9.90;5.57;;;26.80;71.50;;;;;;4882819;29;20188;-84
2021/07/01 16:23:03;;;;;;;9.23;4.30;;;26.70;71.80;;;;;;4883094;29;20260;-84
2021/07/01 16:25:30;;;;;;;9.77;4.73;;;26.40;72.40;;;;;;4882591;29;20297;-85
2021/07/01 16:27:56;;;;;;;7.57;4.33;;;26.30;72.10;;;;;;4882696;29;20197;-85
2021/07/01 16:30:22;;;;;;;10.30;4.77;;;26.70;72.00;;;;;;4883015;29;20222;-85
2021/07/01 16:32:49;;;;;;;6.60;4.20;;;27.20;70.80;;;;;;4898372;29;20192;-84
2021/07/01 16:35:16;;;;;;;8.37;4.03;;;27.70;69.60;;;;;;4898140;29;20193;-87
2021/07/01 16:37:41;;;;;;;5.93;3.43;;;27.90;69.10;;;;;;4897705;29;20709;-85
2021/07/01 16:40:09;;;;;;;9.30;4.03;;;27.80;69.50;;;;;;4879543;29;20182;-84
2021/07/01 16:42:35;;;;;;;7.73;3.83;;;27.40;70.30;;;;;;4879102;29;20181;-84
2021/07/01 16:45:01;;;;;;;10.67;4.57;;;26.90;70.80;;;;;;4897208;29;20199;-85
2021/07/01 16:47:31;;;;;;;8.90;3.80;;;26.50;71.60;;;;;;4882579;29;20643;-85
2021/07/01 16:50:04;;;;;;;7.90;3.53;;;26.40;71.50;;;;;;4882341;29;20701;-85
2021/07/01 16:52:31;;;;;;;8.93;3.97;;;26.20;72.00;;;;;;4879235;29;20220;-84
2021/07/01 16:55:01;;;;;;;7.27;3.93;;;25.80;70.70;;;;;;4880131;29;20189;-84
2021/07/01 16:57:29;;;;;;;7.30;3.40;;;25.60;71.90;;;;;;4897695;29;20225;-82
2021/07/01 16:59:55;;;;;;;8.80;3.73;;;25.10;73.30;;;;;;4898054;29;20196;-84
2021/07/01 17:02:23;;;;;;;8.23;3.50;;;24.60;73.90;;;;;;4897557;29;20195;-85
2021/07/01 17:04:50;;;;;;;11.67;3.60;;;24.50;74.20;;;;;;4897502;29;20256;-84
2021/07/01 17:07:24;;;;;;;6.27;3.50;;;24.40;74.80;;;;;;4882326;29;20201;-84
2021/07/01 17:09:57;;;;;;;10.47;3.67;;;24.40;75.10;;;;;;4878599;29;20220;-86
2021/07/01 17:12:25;;;;;;;6.27;3.30;;;24.30;75.00;;;;;;4879008;29;20280;-84
2021/07/01 17:14:52;;;;;;;7.37;3.80;;;24.20;75.10;;;;;;4878746;29;20187;-84
2021/07/01 17:17:23;;;;;;;9.63;3.73;;;24.10;74.40;;;;;;4888831;29;20192;-84
2021/07/01 17:19:54;;;;;;;8.70;3.67;;;24.10;74.80;;;;;;4882249;29;20214;-84
2021/07/01 17:22:23;;;;;;;8.03;4.10;;;24.00;74.80;;;;;;4882139;29;20199;-85
2021/07/01 17:24:49;;;;;;;7.37;3.60;;;23.60;75.00;;;;;;4881863;29;20285;-86
2021/07/01 17:27:16;;;;;;;6.97;3.77;;;23.30;76.50;;;;;;4878604;29;20189;-84
2021/07/01 17:29:43;;;;;;;7.23;3.40;;;23.00;76.90;;;;;;4879014;29;20547;-87
2021/07/01 17:32:10;;;;;;;6.37;3.30;;;22.60;78.30;;;;;;4893333;29;20254;-84
2021/07/01 17:34:37;;;;;;;8.73;3.37;;;22.50;79.20;;;;;;4897234;29;20204;-84
2021/07/01 17:37:06;;;;;;;8.73;3.43;;;22.60;79.60;;;;;;4897667;29;20343;-84
2021/07/01 17:39:33;;;;;;;7.43;3.17;;;22.70;78.20;;;;;;4897243;29;20185;-86
2021/07/01 17:41:59;;;;;;;8.20;2.93;;;22.60;78.80;;;;;;4897297;29;20190;-84
2021/07/01 17:44:28;;;;;;;5.87;3.00;;;22.60;79.60;;;;;;4881757;29;20274;-84
2021/07/01 17:46:58;;;;;;;6.63;2.77;;;22.70;80.30;;;;;;4878453;29;20549;-86
2021/07/01 17:49:24;;;;;;;7.67;3.63;;;22.80;78.70;;;;;;4863487;29;20280;-86
2021/07/01 17:51:50;;;;;;;9.13;3.43;;;22.80;78.50;;;;;;4863329;29;20280;-86
2021/07/01 17:54:17;;;;;;;8.83;3.57;;;22.80;77.70;;;;;;4876863;29;20184;-84
2021/07/01 17:56:44;;;;;;;10.30;3.73;;;22.60;77.90;;;;;;4878716;29;20200;-87
2021/07/01 17:59:11;;;;;;;9.70;3.30;;;22.60;78.70;;;;;;4878744;29;20204;-84
2021/07/01 18:01:37;;;;;;;9.30;3.77;;;22.50;78.50;;;;;;4878833;29;20181;-83
2021/07/01 18:04:04;;;;;;;7.13;3.17;;;22.30;78.50;;;;;;4894203;29;20656;-84
2021/07/01 18:06:30;;;;;;;6.13;2.97;;;22.00;79.90;;;;;;4897195;29;20267;-84
2021/07/01 18:08:56;;;;;;;6.00;2.70;;;22.00;79.40;;;;;;4897067;29;20217;-84
2021/07/01 18:11:22;;;;;;;6.20;3.60;;;21.90;80.20;;;;;;4896870;29;20222;-86
2021/07/01 18:13:47;;;;;;;7.30;3.30;;;21.80;80.80;;;;;;4880871;29;20190;-83
2021/07/01 18:16:14;;;;;;;7.63;3.23;;;21.90;80.60;;;;;;4896967;29;20243;-84
2021/07/01 18:18:40;;;;;;;5.77;2.77;;;22.00;79.90;;;;;;4881702;29;20182;-84
2021/07/01 18:21:07;;;;;;;6.37;2.73;;;22.00;80.10;;;;;;4879614;29;20200;-84
2021/07/01 18:23:32;;;;;;;7.63;3.00;;;21.90;80.40;;;;;;4880708;29;20251;-84
2021/07/01 18:25:59;;;;;;;10.33;3.47;;;22.00;80.20;;;;;;4882107;29;20285;-84
2021/07/01 18:28:25;;;;;;;7.50;3.53;;;22.00;80.40;;;;;;4884771;29;20275;-84
2021/07/01 18:30:50;;;;;;;7.97;3.40;;;22.00;80.40;;;;;;4884987;29;20246;-84
2021/07/01 18:33:16;;;;;;;5.87;3.10;;;21.90;80.50;;;;;;4884593;29;20206;-84
2021/07/01 18:35:42;;;;;;;7.77;3.03;;;21.90;80.80;;;;;;4900070;29;20263;-84
2021/07/01 18:38:07;;;;;;;7.87;2.83;;;21.70;81.00;;;;;;4899376;29;20272;-84
2021/07/01 18:40:34;;;;;;;8.20;2.70;;;21.60;81.60;;;;;;4900280;29;20543;-84
2021/07/01 18:42:59;;;;;;;5.70;3.03;;;21.60;81.40;;;;;;4900092;29;20647;-83
2021/07/01 18:45:31;;;;;;;5.23;2.80;;;21.50;82.10;;;;;;4884689;29;20213;-86
2021/07/01 18:47:58;;;;;;;5.13;2.50;;;21.40;82.50;;;;;;4874974;29;20214;-86
2021/07/01 18:50:24;;;;;;;6.57;3.00;;;21.30;82.60;;;;;;4881496;29;20191;-86
2021/07/01 18:52:50;;;;;;;6.07;3.00;;;21.40;82.30;;;;;;4866058;29;20182;-86
2021/07/01 18:55:16;;;;;;;5.67;3.13;;;21.40;82.70;;;;;;4881464;29;20267;-84
2021/07/01 18:57:41;;;;;;;8.70;3.20;;;21.30;84.60;;;;;;4881419;29;20248;-84
2021/07/01 19:00:07;;;;;;;4.77;3.00;;;21.40;86.20;;;;;;4881127;29;20239;-84
2021/07/01 19:02:34;;;;;;;8.00;2.70;;;21.20;86.40;;;;;;4899332;29;20188;-84
2021/07/01 19:04:59;;;;;;;4.23;2.60;;;21.20;87.30;;;;;;4884074;29;20195;-84
2021/07/01 19:07:26;;;;;;;6.23;3.00;;;21.20;87.20;;;;;;4884019;29;20208;-86
2021/07/01 19:09:52;;;;;;;6.03;2.80;;;21.00;88.50;;;;;;4883674;29;20200;-83
2021/07/01 19:12:17;;;;;;;8.67;3.20;;;21.00;88.80;;;;;;4880743;29;20704;-84
2021/07/01 19:14:43;;;;;;;9.83;3.17;;;21.10;89.00;;;;;;4898116;29;20183;-84
2021/07/01 19:17:09;;;;;;;7.83;3.60;;;21.00;89.40;;;;;;4884172;29;20257;-83
2021/07/01 19:19:36;;;;;;;7.43;3.00;;;20.90;88.90;;;;;;4884040;29;20188;-83
2021/07/01 19:22:05;;;;;;;7.23;2.70;;;21.00;89.90;;;;;;4883386;29;20218;-84
2021/07/01 19:24:31;;;;;;;7.90;3.00;;;20.90;90.20;;;;;;4899715;29;20261;-84
2021/07/01 19:26:58;;;;;;;9.03;3.53;;;20.90;89.70;;;;;;4899161;29;20187;-84
2021/07/01 19:29:24;;;;;;;8.83;3.00;;;20.90;90.20;;;;;;4898953;29;20194;-83
2021/07/01 19:31:52;;;;;;;6.87;3.20;;;20.90;90.50;;;;;;4898992;29;20306;-83
2021/07/01 19:34:19;;;;;;;4.33;2.60;;;20.80;90.20;;;;;;4883579;29;20260;-83
2021/07/01 19:36:45;;;;;;;8.67;3.20;;;20.70;91.10;;;;;;4883375;29;20275;-83
2021/07/01 19:39:13;;;;;;;6.60;3.63;;;20.70;91.30;;;;;;4883833;29;20671;-83
2021/07/01 19:41:41;;;;;;;14.10;7.60;;;20.70;91.20;;;;;;4880207;29;20192;-83
2021/07/01 19:44:07;;;;;;;8.70;3.37;;;20.50;91.50;;;;;;4880549;29;20181;-83
2021/07/01 19:46:33;;;;;;;9.43;3.80;;;20.50;91.70;;;;;;4886146;29;20718;-84
2021/07/01 19:48:59;;;;;;;7.00;3.47;;;20.40;91.40;;;;;;4880154;29;20203;-83
2021/07/01 19:51:25;;;;;;;6.20;2.97;;;20.40;91.60;;;;;;4885107;29;20665;-83
2021/07/01 19:53:52;;;;;;;10.90;4.10;;;20.20;91.40;;;;;;4874275;29;20207;-84
2021/07/01 19:56:24;;;;;;;9.47;3.60;;;20.10;92.00;;;;;;4864681;29;20694;-83
2021/07/01 19:58:56;;;;;;;6.37;3.03;;;20.20;92.30;;;;;;4881292;29;20231;-83
2021/07/01 20:01:24;;;;;;;8.10;3.07;;;20.00;92.50;;;;;;4883004;29;20180;-83
2021/07/01 20:03:52;;;;;;;9.27;3.73;;;19.90;92.40;;;;;;4898504;29;20274;-83
2021/07/01 20:06:19;;;;;;;11.37;3.20;;;19.80;92.70;;;;;;4898688;29;20210;-83
2021/07/01 20:08:45;;;;;;;7.43;3.00;;;19.90;92.70;;;;;;4882791;29;20182;-83
2021/07/01 20:11:12;;;;;;;9.33;3.20;;;19.80;92.90;;;;;;4882616;29;20226;-83
2021/07/01 20:13:38;;;;;;;6.50;3.33;;;19.70;93.30;;;;;;4898485;29;20190;-83
2021/07/01 20:16:07;;;;;;;7.87;3.27;;;19.60;93.50;;;;;;4883101;29;20173;-83
2021/07/01 20:18:33;;;;;;;8.07;3.13;;;19.50;93.60;;;;;;4879195;29;20215;-83
2021/07/01 20:20:59;;;;;;;7.17;3.30;;;19.40;93.80;;;;;;4887196;29;20742;-83
2021/07/01 20:23:24;;;;;;;5.83;3.57;;;19.20;94.00;;;;;;4898158;29;20180;-83
2021/07/01 20:25:50;;;;;;;5.47;3.17;;;19.20;94.10;;;;;;4882070;29;20176;-83
2021/07/01 20:28:16;;;;;;;6.90;3.23;;;19.10;94.60;;;;;;4882170;29;20186;-83
2021/07/01 20:30:41;;;;;;;8.40;3.40;;;19.10;94.80;;;;;;4882906;29;20279;-83
2021/07/01 20:33:08;;;;;;;4.70;3.07;;;19.10;94.80;;;;;;4882345;29;20184;-82
2021/07/01 20:35:37;;;;;;;8.47;3.93;;;19.10;94.90;;;;;;4899226;29;20620;-83
2021/07/01 20:38:03;;;;;;;10.93;4.93;;;19.10;94.90;;;;;;4882241;29;20362;-85
2021/07/01 20:40:30;;;;;;;8.97;4.13;;;19.10;94.80;;;;;;4898250;29;20189;-83
2021/07/01 20:42:56;;;;;;;7.77;4.40;;;19.10;95.30;;;;;;4897721;29;20185;-85
2021/07/01 20:45:22;;;;;;;10.93;4.07;;;19.30;93.50;;;;;;4882131;29;20679;-88
2021/07/01 20:47:48;;;;;;;8.33;4.03;;;19.20;94.10;;;;;;4881381;29;20622;-83
2021/07/01 20:50:15;;;;;;;8.47;4.10;;;19.10;94.60;;;;;;4881443;29;20536;-85
2021/07/01 20:52:44;;;;;;;10.23;4.27;;;19.00;95.50;;;;;;4877785;29;20276;-84
2021/07/01 20:55:14;;;;;;;10.13;4.10;;;18.80;96.00;;;;;;4878787;29;20227;-83
2021/07/01 20:57:42;;;;;;;12.70;6.77;;;18.70;96.20;;;;;;4884731;29;20185;-84
2021/07/01 21:00:11;;;;;;;16.10;11.73;;;18.60;96.60;;;;;;4882318;29;20191;-84
2021/07/01 21:02:36;;;;;;;10.60;5.67;;;18.50;96.80;;;;;;4880337;29;20185;-84
2021/07/01 21:05:04;;;;;;;10.60;5.90;;;18.50;96.20;;;;;;4885367;29;20672;-83
2021/07/01 21:07:40;;;;;;;11.37;5.60;;;18.70;95.80;;;;;;4881003;29;20205;-84
2021/07/01 21:10:08;;;;;;;9.27;5.10;;;18.60;96.00;;;;;;4866961;29;20673;-76
2021/07/01 21:12:38;;;;;;;9.13;4.67;;;18.50;96.30;;;;;;4868463;29;20305;-80
2021/07/01 21:15:06;;;;;;;12.27;5.27;;;18.70;96.10;;;;;;4895226;29;20189;-77
2021/07/01 21:17:34;;;;;;;10.40;4.83;;;18.70;96.10;;;;;;4895320;29;20658;-77
2021/07/01 21:20:00;;;;;;;12.37;5.80;;;18.50;96.50;;;;;;4894391;29;20223;-76
2021/07/01 21:22:26;;;;;;;17.47;5.70;;;18.40;96.70;;;;;;4897368;29;20264;-77
2021/07/01 21:24:52;;;;;;;12.57;6.13;;;18.40;96.80;;;;;;4897178;29;20189;-76
2021/07/01 21:27:19;;;;;;;10.77;5.50;;;18.50;96.50;;;;;;4896188;29;20196;-76
2021/07/01 21:29:46;;;;;;;9.63;5.60;;;18.50;96.70;;;;;;4896775;29;20219;-77
2021/07/01 21:32:13;;;;;;;10.70;5.73;;;18.30;97.10;;;;;;4897384;29;20644;-76
2021/07/01 21:34:39;;;;;;;10.87;5.50;;;18.20;97.40;;;;;;4895360;29;20624;-77
2021/07/01 21:37:08;;;;;;;12.07;6.13;;;18.00;97.90;;;;;;4896752;29;20193;-76
2021/07/01 21:39:36;;;;;;;13.63;6.37;;;18.00;98.10;;;;;;4877204;29;20185;-77
2021/07/01 21:42:04;;;;;;;11.23;5.70;;;18.00;98.40;;;;;;4879781;29;20199;-76
2021/07/01 21:44:32;;;;;;;11.73;6.47;;;18.10;98.10;;;;;;4895187;29;20196;-76
2021/07/01 21:46:59;;;;;;;12.33;6.00;;;18.10;98.20;;;;;;4880233;29;20220;-76
2021/07/01 21:49:28;;;;;;;11.20;6.33;;;18.10;98.30;;;;;;4876393;29;20212;-77
2021/07/01 21:51:56;;;;;;;17.57;6.93;;;18.10;98.40;;;;;;4878994;29;20222;-77
2021/07/01 21:54:22;;;;;;;13.97;6.53;;;18.10;98.30;;;;;;4880335;29;20249;-76
2021/07/01 21:56:51;;;;;;;12.07;6.00;;;18.10;98.30;;;;;;4897362;29;20545;-77
2021/07/01 21:59:18;;;;;;;9.40;5.40;;;18.10;98.30;;;;;;4896344;29;20250;-77
2021/07/01 22:01:45;;;;;;;10.97;5.80;;;18.10;98.30;;;;;;4897453;29;20225;-76
2021/07/01 22:04:10;;;;;;;10.93;6.33;;;18.10;98.20;;;;;;4900703;29;20639;-77
2021/07/01 22:06:36;;;;;;;11.03;5.13;;;18.00;98.30;;;;;;4883702;29;20205;-78
2021/07/01 22:09:06;;;;;;;10.87;5.50;;;18.10;98.00;;;;;;4900720;29;20210;-78
2021/07/01 22:11:35;;;;;;;11.07;5.80;;;18.10;98.00;;;;;;4882905;29;20252;-77
2021/07/01 22:14:06;;;;;;;11.40;5.47;;;18.00;98.50;;;;;;4900796;29;20277;-76
2021/07/01 22:16:35;;;;;;;10.97;5.80;;;18.10;98.30;;;;;;4882125;29;20731;-76
2021/07/01 22:21:58;;;;;;;12.47;5.57;;;17.90;98.90;;;;;;4873276;29;20181;-76
2021/07/01 22:24:24;;;;;;;14.77;5.80;;;17.90;98.60;;;;;;4900765;29;20209;-76
2021/07/01 22:26:51;;;;;;;9.10;5.07;;;18.00;98.40;;;;;;4899577;29;20197;-79
2021/07/01 22:29:17;;;;;;;10.23;5.67;;;18.10;98.40;;;;;;4898577;29;20188;-76
2021/07/01 22:31:44;;;;;;;7.37;5.17;;;18.00;98.70;;;;;;4897150;29;20586;-76
2021/07/01 22:34:11;;;;;;;10.37;5.77;;;18.00;98.80;;;;;;4879856;29;20725;-83
2021/07/01 22:36:41;;;;;;;10.73;5.87;;;17.90;98.80;;;;;;4894067;29;20693;-76
2021/07/01 22:39:11;;;;;;;11.33;5.80;;;18.10;98.00;;;;;;4879422;29;20259;-76
2021/07/01 22:41:38;;;;;;;11.07;5.20;;;18.10;97.90;;;;;;4888682;29;20203;-77
2021/07/01 22:44:04;;;;;;;8.83;5.47;;;18.10;98.40;;;;;;4896517;29;20205;-76
2021/07/01 22:46:30;;;;;;;8.27;5.50;;;17.80;98.80;;;;;;4898879;29;20666;-77
2021/07/01 22:48:56;;;;;;;13.87;5.73;;;17.80;99.00;;;;;;4898434;29;20188;-76
2021/07/01 22:51:22;;;;;;;10.93;5.67;;;17.80;99.00;;;;;;4892433;29;20222;-75
2021/07/01 22:53:47;;;;;;;9.67;5.63;;;17.80;98.80;;;;;;4891517;29;20213;-76
2021/07/01 22:56:13;;;;;;;9.43;5.27;;;18.00;98.30;;;;;;4882277;29;20204;-76
2021/07/01 22:58:40;;;;;;;11.00;5.60;;;17.90;98.60;;;;;;4896299;29;20233;-76
2021/07/01 23:01:06;;;;;;;10.43;5.73;;;17.80;98.70;;;;;;4880898;29;20551;-76
2021/07/01 23:03:32;;;;;;;9.83;5.03;;;18.00;98.10;;;;;;4899336;29;20177;-75
2021/07/01 23:05:59;;;;;;;11.77;5.57;;;18.20;97.70;;;;;;4895130;29;20219;-76
2021/07/01 23:08:24;;;;;;;10.03;5.67;;;18.20;97.60;;;;;;4893801;29;20246;-76
2021/07/01 23:10:50;;;;;;;11.10;5.53;;;18.30;97.30;;;;;;4898446;29;20223;-76
2021/07/01 23:13:16;;;;;;;11.53;5.70;;;18.50;97.00;;;;;;4897849;29;20200;-76
2021/07/01 23:15:42;;;;;;;8.57;5.77;;;18.30;97.20;;;;;;4894834;29;20684;-78
2021/07/01 23:18:08;;;;;;;10.00;5.87;;;18.00;97.70;;;;;;4889908;29;20197;-76
2021/07/01 23:20:34;;;;;;;10.30;5.77;;;17.90;98.50;;;;;;4890396;29;20671;-76
2021/07/01 23:22:59;;;;;;;10.63;5.57;;;17.90;98.00;;;;;;4895982;29;20205;-76
2021/07/01 23:25:25;;;;;;;11.90;5.93;;;18.00;97.70;;;;;;4899386;29;20253;-76
2021/07/01 23:27:51;;;;;;;12.40;6.00;;;18.30;97.00;;;;;;4883160;29;20249;-76
2021/07/01 23:30:17;;;;;;;11.07;5.80;;;18.40;96.90;;;;;;4900274;29;20584;-76
2021/07/01 23:32:44;;;;;;;9.63;5.33;;;18.10;97.40;;;;;;4878347;29;20661;-77
2021/07/01 23:35:12;;;;;;;11.17;5.57;;;17.90;98.00;;;;;;4894177;29;20658;-77
2021/07/01 23:37:40;;;;;;;9.47;5.40;;;17.70;98.40;;;;;;4875230;29;20258;-77
2021/07/01 23:40:09;;;;;;;11.80;6.10;;;17.70;98.60;;;;;;4896468;29;20278;-77
2021/07/01 23:42:34;;;;;;;14.93;6.43;;;17.70;98.80;;;;;;4894875;29;20177;-77
2021/07/01 23:45:00;;;;;;;7.63;5.00;;;18.00;98.10;;;;;;4899096;29;20275;-76
2021/07/01 23:47:27;;;;;;;9.70;5.30;;;18.10;97.80;;;;;;4897298;29;20199;-77
2021/07/01 23:49:52;;;;;;;9.63;5.37;;;18.20;97.50;;;;;;4873119;29;20658;-77
2021/07/01 23:52:19;;;;;;;10.83;5.60;;;18.10;97.70;;;;;;4899854;29;20220;-76
2021/07/01 23:54:45;;;;;;;11.13;5.63;;;18.00;97.70;;;;;;4898938;29;20261;-76
2021/07/01 23:57:10;;;;;;;6.60;5.03;;;18.20;97.40;;;;;;4880976;29;20185;-77
2021/07/01 23:59:36;;;;;;;10.13;5.30;;;18.00;97.60;;;;;;4881350;29;20207;-76
